sensor_id;sensor_type;location;lat;lon;timestamp;pressure;altitude;pressure_sealevel;temperature;humidity
14393;BME280;7281;42.678;23.372;2023-01-31T00:01:41;94644.81;;;6.23;41.05
14393;BME280;7281;42.678;23.372;2023-01-31T00:04:10;94650.03;;;6.39;40.85
14393;BME280;7281;42.678;23.372;2023-01-31T00:06:40;94668.81;;;6.41;40.92
14393;BME280;7281;42.678;23.372;2023-01-31T00:09:10;94660.13;;;6.36;40.34
14393;BME280;7281;42.678;23.372;2023-01-31T00:11:37;94667.13;;;6.18;40.78
14393;BME280;7281;42.678;23.372;2023-01-31T00:14:05;94671.63;;;6.23;40.56
14393;BME280;7281;42.678;23.372;2023-01-31T00:16:33;94663.19;;;5.88;41.33
14393;BME280;7281;42.678;23.372;2023-01-31T00:19:01;94662.88;;;6.12;41.10
14393;BME280;7281;42.678;23.372;2023-01-31T00:21:29;94650.75;;;6.18;41.14
14393;BME280;7281;42.678;23.372;2023-01-31T00:23:57;94639.47;;;6.29;41.32
14393;BME280;7281;42.678;23.372;2023-01-31T00:26:27;94637.25;;;6.21;41.72
14393;BME280;7281;42.678;23.372;2023-01-31T00:28:57;94644.38;;;6.26;41.15
14393;BME280;7281;42.678;23.372;2023-01-31T00:31:25;94648.47;;;6.38;41.25
14393;BME280;7281;42.678;23.372;2023-01-31T00:33:54;94642.16;;;6.34;41.26
14393;BME280;7281;42.678;23.372;2023-01-31T00:36:26;94648.28;;;6.28;41.35
14393;BME280;7281;42.678;23.372;2023-01-31T00:38:56;94637.66;;;5.85;42.38
14393;BME280;7281;42.678;23.372;2023-01-31T00:41:25;94645.47;;;6.13;41.92
14393;BME280;7281;42.678;23.372;2023-01-31T00:43:52;94633.22;;;6.13;41.81
14393;BME280;7281;42.678;23.372;2023-01-31T00:46:20;94646.72;;;6.27;41.70
14393;BME280;7281;42.678;23.372;2023-01-31T00:48:48;94652.25;;;6.31;41.36
14393;BME280;7281;42.678;23.372;2023-01-31T00:51:15;94639.16;;;6.26;41.81
14393;BME280;7281;42.678;23.372;2023-01-31T00:53:43;94645.84;;;5.93;42.08
14393;BME280;7281;42.678;23.372;2023-01-31T00:56:12;94645.00;;;5.76;41.85
14393;BME280;7281;42.678;23.372;2023-01-31T00:58:40;94637.13;;;4.85;44.03
14393;BME280;7281;42.678;23.372;2023-01-31T01:01:22;94644.78;;;4.34;45.51
14393;BME280;7281;42.678;23.372;2023-01-31T01:03:50;94643.00;;;5.15;44.01
14393;BME280;7281;42.678;23.372;2023-01-31T01:06:17;94630.06;;;5.44;42.96
14393;BME280;7281;42.678;23.372;2023-01-31T01:08:46;94648.44;;;5.65;43.41
14393;BME280;7281;42.678;23.372;2023-01-31T01:11:21;94652.19;;;5.97;42.60
14393;BME280;7281;42.678;23.372;2023-01-31T01:13:48;94659.34;;;5.79;42.75
14393;BME280;7281;42.678;23.372;2023-01-31T01:16:21;94642.69;;;5.52;42.64
14393;BME280;7281;42.678;23.372;2023-01-31T01:18:49;94648.28;;;5.72;42.03
14393;BME280;7281;42.678;23.372;2023-01-31T01:21:19;94651.66;;;5.33;42.69
14393;BME280;7281;42.678;23.372;2023-01-31T01:23:47;94646.56;;;5.38;42.51
14393;BME280;7281;42.678;23.372;2023-01-31T01:26:22;94644.88;;;5.32;42.93
14393;BME280;7281;42.678;23.372;2023-01-31T01:28:50;94626.44;;;5.45;42.02
14393;BME280;7281;42.678;23.372;2023-01-31T01:31:18;94633.47;;;5.72;41.60
14393;BME280;7281;42.678;23.372;2023-01-31T01:33:47;94625.56;;;6.07;40.83
14393;BME280;7281;42.678;23.372;2023-01-31T01:36:16;94622.56;;;5.59;40.93
14393;BME280;7281;42.678;23.372;2023-01-31T01:38:44;94622.69;;;5.92;40.93
14393;BME280;7281;42.678;23.372;2023-01-31T01:41:12;94610.72;;;5.91;41.16
14393;BME280;7281;42.678;23.372;2023-01-31T01:43:49;94624.94;;;6.00;40.36
14393;BME280;7281;42.678;23.372;2023-01-31T01:46:32;94626.72;;;6.28;39.81
14393;BME280;7281;42.678;23.372;2023-01-31T01:49:14;94618.44;;;6.47;39.89
14393;BME280;7281;42.678;23.372;2023-01-31T01:51:46;94627.63;;;6.05;40.05
14393;BME280;7281;42.678;23.372;2023-01-31T01:54:27;94623.66;;;6.02;40.00
14393;BME280;7281;42.678;23.372;2023-01-31T01:56:59;94611.19;;;6.33;39.13
14393;BME280;7281;42.678;23.372;2023-01-31T01:59:36;94627.81;;;6.32;39.43
14393;BME280;7281;42.678;23.372;2023-01-31T02:02:05;94632.53;;;6.18;39.46
14393;BME280;7281;42.678;23.372;2023-01-31T02:04:35;94629.34;;;5.99;39.09
14393;BME280;7281;42.678;23.372;2023-01-31T02:07:03;94609.13;;;5.90;38.52
14393;BME280;7281;42.678;23.372;2023-01-31T02:12:04;94627.78;;;6.15;38.36
14393;BME280;7281;42.678;23.372;2023-01-31T02:14:31;94623.97;;;6.06;37.91
14393;BME280;7281;42.678;23.372;2023-01-31T02:16:57;94634.38;;;6.06;38.04
14393;BME280;7281;42.678;23.372;2023-01-31T02:22:20;94631.41;;;5.86;37.83
14393;BME280;7281;42.678;23.372;2023-01-31T02:27:39;94623.88;;;5.73;37.99
14393;BME280;7281;42.678;23.372;2023-01-31T02:35:45;94631.13;;;5.71;37.56
14393;BME280;7281;42.678;23.372;2023-01-31T02:38:37;94634.50;;;5.83;37.30
14393;BME280;7281;42.678;23.372;2023-01-31T02:49:41;94636.25;;;5.94;37.04
14393;BME280;7281;42.678;23.372;2023-01-31T02:52:20;94644.34;;;6.09;37.09
14393;BME280;7281;42.678;23.372;2023-01-31T02:55:13;94646.41;;;5.56;37.25
14393;BME280;7281;42.678;23.372;2023-01-31T02:58:02;94654.78;;;5.97;36.85
14393;BME280;7281;42.678;23.372;2023-01-31T03:00:33;94665.94;;;6.26;36.56
14393;BME280;7281;42.678;23.372;2023-01-31T03:03:05;94654.59;;;6.15;36.23
14393;BME280;7281;42.678;23.372;2023-01-31T03:05:32;94664.19;;;6.15;37.01
14393;BME280;7281;42.678;23.372;2023-01-31T03:08:01;94672.00;;;5.87;37.55
14393;BME280;7281;42.678;23.372;2023-01-31T03:10:49;94676.38;;;5.98;37.74
14393;BME280;7281;42.678;23.372;2023-01-31T03:16:35;94693.47;;;6.22;37.38
14393;BME280;7281;42.678;23.372;2023-01-31T03:19:30;94706.00;;;5.97;37.44
14393;BME280;7281;42.678;23.372;2023-01-31T03:22:04;94710.09;;;5.81;38.40
14393;BME280;7281;42.678;23.372;2023-01-31T03:24:33;94687.69;;;5.41;38.71
14393;BME280;7281;42.678;23.372;2023-01-31T03:27:00;94699.44;;;5.43;39.23
14393;BME280;7281;42.678;23.372;2023-01-31T03:29:32;94706.84;;;5.63;39.09
14393;BME280;7281;42.678;23.372;2023-01-31T03:32:07;94706.03;;;5.74;38.84
14393;BME280;7281;42.678;23.372;2023-01-31T03:34:37;94716.34;;;5.69;38.92
14393;BME280;7281;42.678;23.372;2023-01-31T03:37:16;94721.06;;;5.72;39.85
14393;BME280;7281;42.678;23.372;2023-01-31T03:42:30;94724.50;;;6.12;38.68
14393;BME280;7281;42.678;23.372;2023-01-31T03:45:29;94738.47;;;5.83;39.33
14393;BME280;7281;42.678;23.372;2023-01-31T03:47:59;94741.88;;;5.72;40.24
14393;BME280;7281;42.678;23.372;2023-01-31T03:50:37;94746.19;;;5.32;40.95
14393;BME280;7281;42.678;23.372;2023-01-31T03:53:39;94747.78;;;5.33;41.42
14393;BME280;7281;42.678;23.372;2023-01-31T03:56:16;94745.63;;;5.30;41.74
14393;BME280;7281;42.678;23.372;2023-01-31T03:58:48;94741.00;;;5.32;41.84
14393;BME280;7281;42.678;23.372;2023-01-31T04:01:18;94742.34;;;4.99;42.79
14393;BME280;7281;42.678;23.372;2023-01-31T04:03:57;94736.94;;;5.36;42.21
14393;BME280;7281;42.678;23.372;2023-01-31T04:06:26;94737.63;;;5.20;42.37
14393;BME280;7281;42.678;23.372;2023-01-31T04:08:53;94733.31;;;5.37;41.97
14393;BME280;7281;42.678;23.372;2023-01-31T04:11:24;94739.88;;;5.04;42.58
14393;BME280;7281;42.678;23.372;2023-01-31T04:13:51;94745.06;;;5.04;43.00
14393;BME280;7281;42.678;23.372;2023-01-31T04:16:18;94754.00;;;4.67;43.53
14393;BME280;7281;42.678;23.372;2023-01-31T04:18:45;94732.84;;;4.93;43.89
14393;BME280;7281;42.678;23.372;2023-01-31T04:21:13;94748.31;;;5.00;43.83
14393;BME280;7281;42.678;23.372;2023-01-31T04:23:40;94749.38;;;4.69;44.71
14393;BME280;7281;42.678;23.372;2023-01-31T04:26:07;94749.72;;;4.61;45.29
14393;BME280;7281;42.678;23.372;2023-01-31T04:28:34;94736.59;;;4.56;45.67
14393;BME280;7281;42.678;23.372;2023-01-31T04:31:01;94740.63;;;4.41;45.77
14393;BME280;7281;42.678;23.372;2023-01-31T04:33:28;94751.81;;;4.41;46.19
14393;BME280;7281;42.678;23.372;2023-01-31T04:35:55;94762.19;;;4.82;45.40
14393;BME280;7281;42.678;23.372;2023-01-31T04:38:22;94757.47;;;5.02;45.14
14393;BME280;7281;42.678;23.372;2023-01-31T04:40:48;94747.06;;;4.79;45.23
14393;BME280;7281;42.678;23.372;2023-01-31T04:43:16;94766.22;;;4.78;45.62
14393;BME280;7281;42.678;23.372;2023-01-31T04:45:43;94779.97;;;4.67;46.34
14393;BME280;7281;42.678;23.372;2023-01-31T04:48:10;94797.91;;;5.10;45.47
14393;BME280;7281;42.678;23.372;2023-01-31T04:50:37;94793.50;;;4.58;46.53
14393;BME280;7281;42.678;23.372;2023-01-31T04:53:03;94787.72;;;4.56;47.12
14393;BME280;7281;42.678;23.372;2023-01-31T04:55:30;94786.63;;;4.63;46.90
14393;BME280;7281;42.678;23.372;2023-01-31T04:57:57;94789.38;;;4.80;46.63
14393;BME280;7281;42.678;23.372;2023-01-31T05:00:24;94782.88;;;4.59;47.01
14393;BME280;7281;42.678;23.372;2023-01-31T05:02:52;94792.03;;;4.62;47.22
14393;BME280;7281;42.678;23.372;2023-01-31T05:05:19;94776.59;;;4.67;46.93
14393;BME280;7281;42.678;23.372;2023-01-31T05:07:48;94766.94;;;3.96;48.56
14393;BME280;7281;42.678;23.372;2023-01-31T05:10:14;94772.97;;;4.27;48.03
14393;BME280;7281;42.678;23.372;2023-01-31T05:12:41;94777.94;;;4.10;48.88
14393;BME280;7281;42.678;23.372;2023-01-31T05:15:08;94770.22;;;4.51;47.79
14393;BME280;7281;42.678;23.372;2023-01-31T05:17:37;94782.00;;;4.36;48.14
14393;BME280;7281;42.678;23.372;2023-01-31T05:20:05;94785.59;;;4.05;48.73
14393;BME280;7281;42.678;23.372;2023-01-31T05:22:32;94790.16;;;4.69;47.54
14393;BME280;7281;42.678;23.372;2023-01-31T05:24:59;94788.41;;;4.33;47.79
14393;BME280;7281;42.678;23.372;2023-01-31T05:27:26;94789.97;;;4.52;47.61
14393;BME280;7281;42.678;23.372;2023-01-31T05:29:53;94795.50;;;4.26;48.21
14393;BME280;7281;42.678;23.372;2023-01-31T05:32:20;94793.09;;;4.72;47.87
14393;BME280;7281;42.678;23.372;2023-01-31T05:34:46;94800.66;;;4.74;47.39
14393;BME280;7281;42.678;23.372;2023-01-31T05:37:13;94795.97;;;4.94;46.94
14393;BME280;7281;42.678;23.372;2023-01-31T05:39:40;94801.63;;;5.14;47.53
14393;BME280;7281;42.678;23.372;2023-01-31T05:42:07;94804.03;;;5.27;46.98
14393;BME280;7281;42.678;23.372;2023-01-31T05:44:34;94794.78;;;5.43;46.88
14393;BME280;7281;42.678;23.372;2023-01-31T05:47:01;94798.94;;;5.21;46.60
14393;BME280;7281;42.678;23.372;2023-01-31T05:49:28;94800.19;;;5.30;46.67
14393;BME280;7281;42.678;23.372;2023-01-31T05:51:59;94799.63;;;5.16;46.43
14393;BME280;7281;42.678;23.372;2023-01-31T05:54:26;94798.47;;;4.59;47.07
14393;BME280;7281;42.678;23.372;2023-01-31T05:56:53;94786.94;;;4.55;47.46
14393;BME280;7281;42.678;23.372;2023-01-31T05:59:20;94798.50;;;5.24;46.83
14393;BME280;7281;42.678;23.372;2023-01-31T06:01:47;94814.53;;;4.79;47.59
14393;BME280;7281;42.678;23.372;2023-01-31T06:04:14;94798.28;;;4.72;47.48
14393;BME280;7281;42.678;23.372;2023-01-31T06:06:41;94805.72;;;4.69;47.20
14393;BME280;7281;42.678;23.372;2023-01-31T06:09:10;94808.91;;;4.82;47.04
14393;BME280;7281;42.678;23.372;2023-01-31T06:11:37;94809.56;;;5.31;46.42
14393;BME280;7281;42.678;23.372;2023-01-31T06:14:04;94816.66;;;5.12;46.67
14393;BME280;7281;42.678;23.372;2023-01-31T06:16:32;94813.03;;;5.01;46.69
14393;BME280;7281;42.678;23.372;2023-01-31T06:18:59;94815.06;;;4.99;46.83
14393;BME280;7281;42.678;23.372;2023-01-31T06:21:26;94834.84;;;4.82;47.34
14393;BME280;7281;42.678;23.372;2023-01-31T06:23:53;94820.19;;;4.88;47.56
14393;BME280;7281;42.678;23.372;2023-01-31T06:26:20;94828.75;;;5.18;46.74
14393;BME280;7281;42.678;23.372;2023-01-31T06:28:47;94833.78;;;5.01;47.55
14393;BME280;7281;42.678;23.372;2023-01-31T06:31:14;94833.19;;;4.88;47.39
14393;BME280;7281;42.678;23.372;2023-01-31T06:33:41;94829.72;;;5.05;47.27
14393;BME280;7281;42.678;23.372;2023-01-31T06:36:15;94834.56;;;5.02;47.10
14393;BME280;7281;42.678;23.372;2023-01-31T06:38:49;94831.03;;;4.55;48.86
14393;BME280;7281;42.678;23.372;2023-01-31T06:41:20;94827.22;;;4.58;48.43
14393;BME280;7281;42.678;23.372;2023-01-31T06:43:47;94839.19;;;4.88;48.24
14393;BME280;7281;42.678;23.372;2023-01-31T06:46:14;94835.78;;;4.88;48.30
14393;BME280;7281;42.678;23.372;2023-01-31T06:48:41;94845.78;;;4.43;49.06
14393;BME280;7281;42.678;23.372;2023-01-31T06:51:08;94849.28;;;4.78;48.50
14393;BME280;7281;42.678;23.372;2023-01-31T06:53:35;94852.25;;;4.16;49.62
14393;BME280;7281;42.678;23.372;2023-01-31T06:56:02;94848.09;;;4.15;49.91
14393;BME280;7281;42.678;23.372;2023-01-31T06:58:29;94852.56;;;5.03;48.33
14393;BME280;7281;42.678;23.372;2023-01-31T07:01:03;94843.78;;;4.86;48.31
14393;BME280;7281;42.678;23.372;2023-01-31T07:03:30;94853.06;;;4.94;48.36
14393;BME280;7281;42.678;23.372;2023-01-31T07:05:57;94853.06;;;5.24;47.80
14393;BME280;7281;42.678;23.372;2023-01-31T07:08:23;94854.63;;;4.36;49.46
14393;BME280;7281;42.678;23.372;2023-01-31T07:10:50;94861.31;;;4.61;48.98
14393;BME280;7281;42.678;23.372;2023-01-31T07:13:17;94849.03;;;4.68;48.65
14393;BME280;7281;42.678;23.372;2023-01-31T07:15:45;94849.41;;;5.25;47.50
14393;BME280;7281;42.678;23.372;2023-01-31T07:18:12;94846.75;;;4.90;48.29
14393;BME280;7281;42.678;23.372;2023-01-31T07:20:39;94848.38;;;5.14;47.43
14393;BME280;7281;42.678;23.372;2023-01-31T07:23:07;94863.19;;;4.54;49.12
14393;BME280;7281;42.678;23.372;2023-01-31T07:25:35;94871.13;;;4.89;48.41
14393;BME280;7281;42.678;23.372;2023-01-31T07:28:02;94858.00;;;5.37;47.43
14393;BME280;7281;42.678;23.372;2023-01-31T07:30:29;94859.81;;;5.25;47.26
14393;BME280;7281;42.678;23.372;2023-01-31T07:32:56;94861.19;;;5.27;47.00
14393;BME280;7281;42.678;23.372;2023-01-31T07:35:23;94859.63;;;5.61;46.83
14393;BME280;7281;42.678;23.372;2023-01-31T07:37:51;94857.06;;;5.95;45.94
14393;BME280;7281;42.678;23.372;2023-01-31T07:40:18;94866.75;;;5.54;46.74
14393;BME280;7281;42.678;23.372;2023-01-31T07:42:45;94863.38;;;5.76;46.98
14393;BME280;7281;42.678;23.372;2023-01-31T07:45:14;94859.06;;;5.59;47.39
14393;BME280;7281;42.678;23.372;2023-01-31T07:47:59;94861.13;;;5.91;46.54
14393;BME280;7281;42.678;23.372;2023-01-31T07:50:26;94849.69;;;6.04;46.25
14393;BME280;7281;42.678;23.372;2023-01-31T07:52:53;94865.50;;;5.45;47.07
14393;BME280;7281;42.678;23.372;2023-01-31T07:55:22;94865.88;;;5.18;47.86
14393;BME280;7281;42.678;23.372;2023-01-31T07:57:49;94868.47;;;6.06;46.71
14393;BME280;7281;42.678;23.372;2023-01-31T08:00:16;94876.69;;;5.68;47.87
14393;BME280;7281;42.678;23.372;2023-01-31T08:03:23;94856.50;;;6.05;46.39
14393;BME280;7281;42.678;23.372;2023-01-31T08:08:26;94847.34;;;5.91;47.57
14393;BME280;7281;42.678;23.372;2023-01-31T08:10:53;94858.16;;;5.42;48.04
14393;BME280;7281;42.678;23.372;2023-01-31T08:13:20;94870.75;;;5.91;47.68
14393;BME280;7281;42.678;23.372;2023-01-31T08:15:50;94854.47;;;6.07;47.54
14393;BME280;7281;42.678;23.372;2023-01-31T08:18:18;94845.53;;;5.91;47.27
14393;BME280;7281;42.678;23.372;2023-01-31T08:20:45;94843.47;;;6.17;47.14
14393;BME280;7281;42.678;23.372;2023-01-31T08:23:11;94840.41;;;6.08;47.74
14393;BME280;7281;42.678;23.372;2023-01-31T08:25:39;94846.53;;;6.53;46.60
14393;BME280;7281;42.678;23.372;2023-01-31T08:28:06;94857.38;;;5.76;47.86
14393;BME280;7281;42.678;23.372;2023-01-31T08:30:33;94840.84;;;6.28;46.86
14393;BME280;7281;42.678;23.372;2023-01-31T08:33:00;94841.88;;;6.04;47.58
14393;BME280;7281;42.678;23.372;2023-01-31T08:35:27;94852.72;;;6.24;46.68
14393;BME280;7281;42.678;23.372;2023-01-31T08:37:54;94843.44;;;6.28;47.04
14393;BME280;7281;42.678;23.372;2023-01-31T08:40:39;94846.31;;;6.55;45.99
14393;BME280;7281;42.678;23.372;2023-01-31T08:43:07;94844.59;;;7.16;45.07
14393;BME280;7281;42.678;23.372;2023-01-31T08:45:35;94832.97;;;7.07;44.86
14393;BME280;7281;42.678;23.372;2023-01-31T08:48:02;94839.09;;;6.73;45.05
14393;BME280;7281;42.678;23.372;2023-01-31T08:50:31;94845.25;;;6.67;45.36
14393;BME280;7281;42.678;23.372;2023-01-31T08:53:01;94846.66;;;6.58;45.83
14393;BME280;7281;42.678;23.372;2023-01-31T08:55:29;94845.91;;;6.74;45.60
14393;BME280;7281;42.678;23.372;2023-01-31T08:57:56;94866.53;;;6.25;45.93
14393;BME280;7281;42.678;23.372;2023-01-31T09:00:26;94847.63;;;6.29;46.18
14393;BME280;7281;42.678;23.372;2023-01-31T09:02:55;94850.44;;;6.95;45.12
14393;BME280;7281;42.678;23.372;2023-01-31T09:05:25;94844.22;;;6.96;45.44
14393;BME280;7281;42.678;23.372;2023-01-31T09:07:52;94830.72;;;6.55;45.59
14393;BME280;7281;42.678;23.372;2023-01-31T09:10:20;94853.63;;;6.97;45.05
14393;BME280;7281;42.678;23.372;2023-01-31T09:12:47;94857.78;;;6.82;44.99
14393;BME280;7281;42.678;23.372;2023-01-31T09:15:14;94849.72;;;7.11;44.45
14393;BME280;7281;42.678;23.372;2023-01-31T09:17:41;94850.13;;;7.37;43.94
14393;BME280;7281;42.678;23.372;2023-01-31T09:20:09;94847.53;;;6.92;44.27
14393;BME280;7281;42.678;23.372;2023-01-31T09:22:36;94833.59;;;7.14;44.47
14393;BME280;7281;42.678;23.372;2023-01-31T09:25:04;94827.84;;;6.68;44.79
14393;BME280;7281;42.678;23.372;2023-01-31T09:27:31;94834.22;;;7.88;43.56
14393;BME280;7281;42.678;23.372;2023-01-31T09:29:58;94836.22;;;7.48;43.68
14393;BME280;7281;42.678;23.372;2023-01-31T09:32:25;94827.50;;;7.09;43.84
14393;BME280;7281;42.678;23.372;2023-01-31T09:34:52;94819.97;;;7.41;43.15
14393;BME280;7281;42.678;23.372;2023-01-31T09:37:19;94814.88;;;7.01;43.60
14393;BME280;7281;42.678;23.372;2023-01-31T09:39:46;94809.84;;;7.44;43.85
14393;BME280;7281;42.678;23.372;2023-01-31T09:42:21;94812.59;;;8.09;42.60
14393;BME280;7281;42.678;23.372;2023-01-31T09:44:57;94800.41;;;8.36;41.48
14393;BME280;7281;42.678;23.372;2023-01-31T09:47:28;94811.09;;;8.56;41.60
14393;BME280;7281;42.678;23.372;2023-01-31T09:50:20;94817.94;;;8.36;41.83
14393;BME280;7281;42.678;23.372;2023-01-31T09:52:48;94818.88;;;8.51;41.14
14393;BME280;7281;42.678;23.372;2023-01-31T09:55:18;94803.53;;;8.33;40.92
14393;BME280;7281;42.678;23.372;2023-01-31T09:57:54;94807.09;;;8.49;41.14
14393;BME280;7281;42.678;23.372;2023-01-31T10:00:29;94802.38;;;9.26;40.13
14393;BME280;7281;42.678;23.372;2023-01-31T10:06:27;94794.00;;;10.02;38.84
14393;BME280;7281;42.678;23.372;2023-01-31T10:11:56;94803.31;;;9.14;39.81
14393;BME280;7281;42.678;23.372;2023-01-31T10:22:17;94793.31;;;8.10;41.23
14393;BME280;7281;42.678;23.372;2023-01-31T10:24:56;94798.25;;;9.03;40.94
14393;BME280;7281;42.678;23.372;2023-01-31T10:30:42;94793.06;;;8.81;40.10
14393;BME280;7281;42.678;23.372;2023-01-31T10:33:21;94793.41;;;8.20;40.92
14393;BME280;7281;42.678;23.372;2023-01-31T10:35:51;94787.50;;;8.46;40.90
14393;BME280;7281;42.678;23.372;2023-01-31T10:38:26;94787.69;;;8.23;41.72
14393;BME280;7281;42.678;23.372;2023-01-31T10:41:08;94787.19;;;8.21;42.24
14393;BME280;7281;42.678;23.372;2023-01-31T10:43:43;94792.19;;;8.71;41.08
14393;BME280;7281;42.678;23.372;2023-01-31T10:46:11;94788.56;;;8.29;41.39
14393;BME280;7281;42.678;23.372;2023-01-31T10:48:39;94790.75;;;7.93;41.85
14393;BME280;7281;42.678;23.372;2023-01-31T10:56:12;94798.25;;;7.90;42.20
14393;BME280;7281;42.678;23.372;2023-01-31T10:58:43;94785.75;;;7.92;42.34
14393;BME280;7281;42.678;23.372;2023-01-31T11:01:10;94798.63;;;7.10;43.50
14393;BME280;7281;42.678;23.372;2023-01-31T11:03:49;94800.34;;;7.22;42.67
14393;BME280;7281;42.678;23.372;2023-01-31T11:06:17;94792.78;;;7.03;43.42
14393;BME280;7281;42.678;23.372;2023-01-31T11:08:48;94797.00;;;7.76;42.06
14393;BME280;7281;42.678;23.372;2023-01-31T11:11:18;94798.44;;;7.67;42.72
14393;BME280;7281;42.678;23.372;2023-01-31T11:16:37;94791.22;;;7.02;43.50
14393;BME280;7281;42.678;23.372;2023-01-31T11:19:35;94793.66;;;7.59;43.06
14393;BME280;7281;42.678;23.372;2023-01-31T11:22:03;94797.69;;;7.50;43.17
14393;BME280;7281;42.678;23.372;2023-01-31T11:24:32;94801.84;;;7.67;42.49
14393;BME280;7281;42.678;23.372;2023-01-31T11:27:06;94785.84;;;7.26;43.80
14393;BME280;7281;42.678;23.372;2023-01-31T11:29:38;94793.47;;;7.32;43.04
14393;BME280;7281;42.678;23.372;2023-01-31T11:32:16;94795.78;;;7.29;43.39
14393;BME280;7281;42.678;23.372;2023-01-31T11:38:17;94803.91;;;7.15;44.92
14393;BME280;7281;42.678;23.372;2023-01-31T11:40:46;94801.06;;;7.34;44.82
14393;BME280;7281;42.678;23.372;2023-01-31T11:45:43;94787.25;;;7.16;45.62
14393;BME280;7281;42.678;23.372;2023-01-31T11:50:42;94784.91;;;7.32;45.29
14393;BME280;7281;42.678;23.372;2023-01-31T11:53:18;94796.91;;;7.87;44.47
14393;BME280;7281;42.678;23.372;2023-01-31T11:55:48;94792.94;;;6.97;45.91
14393;BME280;7281;42.678;23.372;2023-01-31T11:58:19;94792.44;;;6.83;46.65
14393;BME280;7281;42.678;23.372;2023-01-31T12:00:57;94796.50;;;7.41;45.60
14393;BME280;7281;42.678;23.372;2023-01-31T12:03:25;94785.03;;;7.08;46.39
14393;BME280;7281;42.678;23.372;2023-01-31T12:06:09;94790.56;;;6.39;47.45
14393;BME280;7281;42.678;23.372;2023-01-31T12:08:40;94789.28;;;6.53;47.44
14393;BME280;7281;42.678;23.372;2023-01-31T12:13:52;94793.41;;;7.10;46.57
14393;BME280;7281;42.678;23.372;2023-01-31T12:16:24;94788.81;;;7.01;46.09
14393;BME280;7281;42.678;23.372;2023-01-31T12:21:58;94784.06;;;6.81;46.84
14393;BME280;7281;42.678;23.372;2023-01-31T12:25:03;94791.06;;;7.26;46.17
14393;BME280;7281;42.678;23.372;2023-01-31T12:44:33;94795.84;;;7.34;44.60
14393;BME280;7281;42.678;23.372;2023-01-31T12:53:50;94798.41;;;6.67;45.85
14393;BME280;7281;42.678;23.372;2023-01-31T12:56:22;94805.66;;;6.65;46.86
14393;BME280;7281;42.678;23.372;2023-01-31T13:01:47;94819.78;;;7.14;47.01
14393;BME280;7281;42.678;23.372;2023-01-31T13:07:15;94813.69;;;6.64;47.93
14393;BME280;7281;42.678;23.372;2023-01-31T13:09:47;94818.56;;;6.60;48.81
14393;BME280;7281;42.678;23.372;2023-01-31T13:12:21;94824.16;;;5.89;49.28
14393;BME280;7281;42.678;23.372;2023-01-31T13:15:04;94825.50;;;5.69;49.25
14393;BME280;7281;42.678;23.372;2023-01-31T13:17:34;94817.97;;;6.42;48.16
14393;BME280;7281;42.678;23.372;2023-01-31T13:22:53;94810.44;;;7.01;46.75
14393;BME280;7281;42.678;23.372;2023-01-31T13:25:28;94819.28;;;6.84;46.65
14393;BME280;7281;42.678;23.372;2023-01-31T13:28:16;94828.22;;;6.08;47.26
14393;BME280;7281;42.678;23.372;2023-01-31T13:30:49;94814.75;;;6.51;47.28
14393;BME280;7281;42.678;23.372;2023-01-31T13:33:33;94817.94;;;6.70;47.04
14393;BME280;7281;42.678;23.372;2023-01-31T13:38:47;94826.03;;;6.85;46.51
14393;BME280;7281;42.678;23.372;2023-01-31T13:41:35;94809.84;;;7.11;45.63
14393;BME280;7281;42.678;23.372;2023-01-31T13:44:02;94821.13;;;7.16;46.01
14393;BME280;7281;42.678;23.372;2023-01-31T13:46:42;94816.28;;;6.92;46.66
14393;BME280;7281;42.678;23.372;2023-01-31T13:49:27;94821.34;;;6.98;46.59
14393;BME280;7281;42.678;23.372;2023-01-31T13:51:58;94823.56;;;7.06;46.61
14393;BME280;7281;42.678;23.372;2023-01-31T13:54:34;94819.06;;;6.74;46.41
14393;BME280;7281;42.678;23.372;2023-01-31T13:57:03;94819.75;;;6.97;46.03
14393;BME280;7281;42.678;23.372;2023-01-31T13:59:33;94826.38;;;6.88;45.62
14393;BME280;7281;42.678;23.372;2023-01-31T14:02:14;94825.47;;;7.28;44.99
14393;BME280;7281;42.678;23.372;2023-01-31T14:04:43;94826.19;;;7.40;45.11
14393;BME280;7281;42.678;23.372;2023-01-31T14:07:17;94821.66;;;7.68;44.42
14393;BME280;7281;42.678;23.372;2023-01-31T14:24:53;94846.44;;;7.04;44.44
14393;BME280;7281;42.678;23.372;2023-01-31T14:30:34;94845.03;;;7.13;44.23
14393;BME280;7281;42.678;23.372;2023-01-31T14:35:47;94846.16;;;7.17;44.45
14393;BME280;7281;42.678;23.372;2023-01-31T14:41:46;94846.75;;;6.63;44.73
14393;BME280;7281;42.678;23.372;2023-01-31T14:47:00;94862.34;;;6.75;44.80
14393;BME280;7281;42.678;23.372;2023-01-31T14:52:36;94874.47;;;6.69;44.19
14393;BME280;7281;42.678;23.372;2023-01-31T14:57:57;94886.13;;;6.67;44.80
14393;BME280;7281;42.678;23.372;2023-01-31T15:00:32;94887.84;;;6.61;45.02
14393;BME280;7281;42.678;23.372;2023-01-31T15:03:13;94896.59;;;6.83;44.92
14393;BME280;7281;42.678;23.372;2023-01-31T15:05:48;94886.34;;;6.65;45.67
14393;BME280;7281;42.678;23.372;2023-01-31T15:10:55;94899.94;;;6.67;45.86
14393;BME280;7281;42.678;23.372;2023-01-31T15:13:44;94914.25;;;6.81;45.46
14393;BME280;7281;42.678;23.372;2023-01-31T15:16:35;94921.69;;;6.50;46.58
14393;BME280;7281;42.678;23.372;2023-01-31T15:19:11;94904.97;;;6.34;46.35
14393;BME280;7281;42.678;23.372;2023-01-31T15:21:44;94906.53;;;6.47;46.11
14393;BME280;7281;42.678;23.372;2023-01-31T15:24:23;94909.63;;;6.32;46.16
14393;BME280;7281;42.678;23.372;2023-01-31T15:26:53;94905.41;;;6.43;46.44
14393;BME280;7281;42.678;23.372;2023-01-31T15:29:24;94907.34;;;6.36;46.78
14393;BME280;7281;42.678;23.372;2023-01-31T15:31:56;94910.19;;;6.34;46.61
14393;BME280;7281;42.678;23.372;2023-01-31T15:34:30;94918.56;;;6.25;46.55
14393;BME280;7281;42.678;23.372;2023-01-31T15:37:13;94922.84;;;6.19;47.03
14393;BME280;7281;42.678;23.372;2023-01-31T15:39:56;94915.16;;;6.36;46.48
14393;BME280;7281;42.678;23.372;2023-01-31T15:42:32;94922.19;;;6.12;46.75
14393;BME280;7281;42.678;23.372;2023-01-31T15:45:16;94923.75;;;5.90;46.82
14393;BME280;7281;42.678;23.372;2023-01-31T15:47:58;94928.75;;;6.14;46.85
14393;BME280;7281;42.678;23.372;2023-01-31T15:50:27;94935.53;;;6.15;47.44
14393;BME280;7281;42.678;23.372;2023-01-31T15:53:01;94931.09;;;6.39;47.91